Time;durP1;ratioP1;P1;durP2;ratioP2;P2;SDS_P1;SDS_P2;PMS_P1;PMS_P2;Temp;Humidity;BMP_temperature;BMP_pressure;BME280_temperature;BME280_humidity;BME280_pressure;Samples;Min_cycle;Max_cycle;Signal;HPM_P1;HPM_P2
2023/06/30 00:01:37;;;;;;;;;;;;;;;15.85;80.14;101449.53;5018954;28;20092;-59
2023/06/30 00:04:02;;;;;;;8.40;2.67;;;;;;;15.71;79.88;101443.22;5016981;28;19908;-59
2023/06/30 00:06:27;;;;;;;12.95;2.65;;;;;;;15.65;80.06;101441.28;5025306;28;20418;-59
2023/06/30 00:08:53;;;;;;;11.20;2.72;;;;;;;15.58;80.15;101436.81;5024652;28;20028;-59
2023/06/30 00:11:23;;;;;;;11.93;2.80;;;;;;;15.52;80.25;101435.75;5026162;28;20033;-59
2023/06/30 00:13:49;;;;;;;8.90;2.72;;;;;;;15.42;80.12;101422.66;5017146;28;20601;-59
2023/06/30 00:16:15;;;;;;;12.40;3.45;;;;;;;15.44;80.66;101442.03;5023972;28;20033;-59
2023/06/30 00:18:40;;;;;;;12.88;2.50;;;;;;;15.36;80.34;101439.47;5021320;28;20025;-59
2023/06/30 00:21:05;;;;;;;10.95;2.65;;;;;;;15.26;80.69;101438.09;5020869;28;20025;-59
2023/06/30 00:23:31;;;;;;;9.13;3.05;;;;;;;15.19;81.00;101443.38;5022967;28;20033;-59
2023/06/30 00:25:56;;;;;;;12.32;2.70;;;;;;;15.12;81.54;101437.94;5021311;28;20049;-59
2023/06/30 00:28:21;;;;;;;9.85;3.42;;;;;;;15.11;81.83;101438.94;5020666;28;20033;-59
2023/06/30 00:30:47;;;;;;;12.18;3.22;;;;;;;15.04;81.72;101439.88;5010253;28;20095;-59
2023/06/30 00:33:13;;;;;;;7.57;3.00;;;;;;;14.99;82.20;101432.38;5017245;28;20398;-59
2023/06/30 00:35:38;;;;;;;10.60;3.20;;;;;;;14.91;82.30;101432.50;5025427;28;20037;-59
2023/06/30 00:38:04;;;;;;;9.77;3.33;;;;;;;14.84;82.19;101436.94;5021204;28;20022;-59
2023/06/30 00:40:29;;;;;;;13.23;3.47;;;;;;;14.77;82.65;101434.16;5022953;28;20445;-59
2023/06/30 00:42:55;;;;;;;11.75;3.13;;;;;;;14.72;83.24;101443.72;5018221;28;20708;-59
2023/06/30 00:45:20;;;;;;;9.10;3.42;;;;;;;14.66;83.51;101437.28;5023951;28;21621;-59
2023/06/30 00:47:46;;;;;;;10.00;3.53;;;;;;;14.64;83.35;101430.44;5015784;28;20111;-59
2023/06/30 00:50:12;;;;;;;8.82;3.53;;;;;;;14.60;83.92;101431.81;5017668;28;20028;-59
2023/06/30 00:52:37;;;;;;;9.00;4.53;;;;;;;14.53;84.21;101427.22;5026806;28;20026;-59
2023/06/30 00:55:04;;;;;;;11.15;3.28;;;;;;;14.44;84.31;101432.78;5022449;28;20018;-59
2023/06/30 00:57:29;;;;;;;13.48;4.00;;;;;;;14.31;84.52;101429.91;5022151;28;20029;-59
2023/06/30 00:59:54;;;;;;;10.18;4.07;;;;;;;14.23;85.12;101433.47;5013667;28;20057;-58
2023/06/30 01:02:24;;;;;;;10.85;3.67;;;;;;;14.12;84.74;101440.06;5024328;28;20040;-59
2023/06/30 01:05:08;;;;;;;11.13;3.95;;;;;;;14.03;85.39;101441.13;5018664;28;20032;-59
2023/06/30 01:07:33;;;;;;;12.70;3.47;;;;;;;13.95;85.80;101441.19;5014723;28;20064;-59
2023/06/30 01:10:03;;;;;;;9.63;3.75;;;;;;;13.88;86.21;101438.41;5021991;28;20057;-59
2023/06/30 01:12:30;;;;;;;10.85;4.13;;;;;;;13.86;86.36;101439.56;5016993;28;20053;-59
2023/06/30 01:14:55;;;;;;;12.15;4.03;;;;;;;13.81;86.85;101440.09;5018473;28;20510;-58
2023/06/30 01:17:22;;;;;;;12.38;4.10;;;;;;;13.74;86.92;101441.84;5018702;28;20057;-58
2023/06/30 01:19:50;;;;;;;10.07;3.72;;;;;;;13.70;86.66;101431.69;5017874;28;20037;-58
2023/06/30 01:22:24;;;;;;;10.77;4.00;;;;;;;13.59;87.08;101438.28;5029391;28;20029;-59
2023/06/30 01:24:54;;;;;;;13.68;4.03;;;;;;;13.49;87.14;101442.97;5014870;28;20049;-59
2023/06/30 01:27:21;;;;;;;10.00;3.85;;;;;;;13.39;86.91;101435.19;5018417;28;20049;-59
2023/06/30 01:29:47;;;;;;;8.63;4.20;;;;;;;13.34;87.49;101432.22;5018217;28;20144;-59
2023/06/30 01:32:16;;;;;;;10.07;3.95;;;;;;;13.32;87.49;101436.91;5022091;28;20573;-59
2023/06/30 01:34:44;;;;;;;14.25;3.95;;;;;;;13.33;88.13;101434.06;5020846;28;20025;-59
2023/06/30 01:37:09;;;;;;;13.30;4.18;;;;;;;13.37;88.66;101434.53;5021175;28;20030;-58
2023/06/30 01:39:34;;;;;;;10.95;4.20;;;;;;;13.39;88.76;101442.38;5018105;28;20401;-58
2023/06/30 01:42:00;;;;;;;14.77;4.20;;;;;;;13.35;88.80;101438.38;5017448;28;20022;-59
2023/06/30 01:44:25;;;;;;;10.52;3.63;;;;;;;13.32;88.49;101436.91;5016953;28;20433;-58
2023/06/30 01:46:50;;;;;;;11.93;3.80;;;;;;;13.28;88.79;101432.91;5018724;28;20026;-59
2023/06/30 01:49:17;;;;;;;9.77;3.97;;;;;;;13.27;88.92;101434.72;5026035;28;20029;-59
2023/06/30 01:51:42;;;;;;;11.23;3.90;;;;;;;13.24;89.08;101428.91;5021984;28;20057;-58
2023/06/30 01:54:07;;;;;;;11.10;3.92;;;;;;;13.24;89.01;101423.59;5019216;28;20107;-59
2023/06/30 01:56:34;;;;;;;12.40;4.15;;;;;;;13.24;89.12;101428.91;5013371;28;20029;-59
2023/06/30 01:59:00;;;;;;;9.73;3.88;;;;;;;13.23;88.65;101422.75;5029322;28;20053;-59
2023/06/30 02:01:25;;;;;;;10.50;3.70;;;;;;;13.19;88.80;101421.44;5024230;28;20072;-58
2023/06/30 02:03:51;;;;;;;12.85;3.90;;;;;;;13.18;88.75;101422.44;5013041;28;20572;-59
2023/06/30 02:06:16;;;;;;;13.77;3.75;;;;;;;13.14;88.73;101418.44;5014650;28;20022;-59
2023/06/30 02:08:41;;;;;;;11.55;3.97;;;;;;;13.14;88.73;101418.44;5016256;28;20458;-59
2023/06/30 02:11:07;;;;;;;11.18;4.10;;;;;;;13.17;88.73;101426.13;5030702;28;20026;-59
2023/06/30 02:13:32;;;;;;;9.77;3.83;;;;;;;13.13;88.92;101427.44;5023568;28;20098;-59
2023/06/30 02:15:57;;;;;;;13.18;3.88;;;;;;;13.08;88.63;101411.13;5012491;28;20025;-59
2023/06/30 02:18:24;;;;;;;15.00;4.68;;;;;;;13.06;88.87;101421.13;5010913;28;20057;-58
2023/06/30 02:20:50;;;;;;;11.63;3.88;;;;;;;13.05;88.61;101423.97;5021290;28;20025;-58
2023/06/30 02:23:15;;;;;;;11.32;4.20;;;;;;;13.00;88.72;101421.81;5019467;28;20028;-59
2023/06/30 02:25:41;;;;;;;13.75;4.43;;;;;;;13.00;88.73;101425.31;5021626;28;20018;-59
2023/06/30 02:28:06;;;;;;;9.68;4.20;;;;;;;12.95;88.73;101416.16;5020932;28;20022;-58
2023/06/30 02:30:31;;;;;;;10.45;4.20;;;;;;;12.91;88.73;101429.00;5019275;28;20455;-58
2023/06/30 02:32:57;;;;;;;9.80;3.97;;;;;;;12.92;89.14;101421.84;5025506;28;20028;-59
2023/06/30 02:35:23;;;;;;;11.10;4.57;;;;;;;12.89;89.13;101423.03;5028980;28;20403;-59
2023/06/30 02:37:48;;;;;;;10.20;4.18;;;;;;;12.81;89.05;101427.56;5024014;28;20013;-59
2023/06/30 02:40:13;;;;;;;10.15;4.05;;;;;;;12.71;88.82;101422.38;5015160;28;20034;-59
2023/06/30 02:42:39;;;;;;;8.88;3.90;;;;;;;12.70;88.93;101426.88;5019331;28;20092;-58
2023/06/30 02:45:05;;;;;;;9.82;3.92;;;;;;;12.72;89.85;101434.72;5023339;28;20022;-59
2023/06/30 02:47:30;;;;;;;13.70;4.55;;;;;;;12.70;89.86;101437.53;5021719;28;20494;-58
2023/06/30 02:49:55;;;;;;;11.80;4.18;;;;;;;12.74;90.13;101435.41;5024525;28;20032;-59
2023/06/30 02:52:20;;;;;;;12.60;4.45;;;;;;;12.74;90.04;101431.91;5010236;28;20025;-58
2023/06/30 02:54:46;;;;;;;9.05;4.68;;;;;;;12.76;90.52;101445.88;5020996;28;20140;-58
2023/06/30 02:57:11;;;;;;;11.93;4.38;;;;;;;12.75;90.65;101447.72;5025111;28;20060;-59
2023/06/30 02:59:36;;;;;;;14.23;4.53;;;;;;;12.75;90.64;101447.72;5018583;28;20033;-58
2023/06/30 03:02:02;;;;;;;10.30;4.63;;;;;;;12.75;90.88;101446.91;5022659;28;20025;-58
2023/06/30 03:04:27;;;;;;;9.52;4.95;;;;;;;12.75;90.68;101446.91;5012748;28;20067;-59
2023/06/30 03:06:53;;;;;;;11.60;4.40;;;;;;;12.78;90.95;101442.06;5012262;28;20030;-59
2023/06/30 03:09:18;;;;;;;9.52;4.25;;;;;;;12.80;90.80;101442.72;5018214;28;20025;-58
2023/06/30 03:11:43;;;;;;;11.38;4.30;;;;;;;12.79;90.90;101441.06;5020498;28;20080;-59
2023/06/30 03:14:08;;;;;;;11.90;4.68;;;;;;;12.80;90.75;101445.38;5020913;28;20025;-59
2023/06/30 03:16:36;;;;;;;9.65;4.10;;;;;;;12.77;90.89;101447.56;5018831;28;20030;-59
2023/06/30 03:19:01;;;;;;;8.85;4.25;;;;;;;12.74;90.34;101447.91;5023048;28;20743;-59
2023/06/30 03:21:27;;;;;;;14.57;4.47;;;;;;;12.74;90.61;101443.41;5023742;28;20140;-59
2023/06/30 03:23:52;;;;;;;11.82;4.72;;;;;;;12.75;90.96;101433.56;5014116;28;20042;-59
2023/06/30 03:26:17;;;;;;;11.48;5.10;;;;;;;12.77;91.33;101436.91;5021019;28;20652;-59
2023/06/30 03:28:42;;;;;;;10.05;4.75;;;;;;;12.73;91.01;101433.75;5011921;28;20037;-58
2023/06/30 03:31:08;;;;;;;9.73;3.90;;;;;;;12.69;90.81;101429.72;5009465;28;20037;-58
2023/06/30 03:33:33;;;;;;;10.20;4.18;;;;;;;12.62;90.94;101434.91;5025021;28;20406;-58
2023/06/30 03:35:59;;;;;;;6.55;3.40;;;;;;;12.50;90.28;101430.13;5013902;28;20026;-58
2023/06/30 03:38:24;;;;;;;10.27;3.80;;;;;;;12.41;90.58;101429.25;5018069;28;20383;-58
2023/06/30 03:40:49;;;;;;;7.57;3.63;;;;;;;12.35;90.61;101433.44;5017155;28;20056;-59
2023/06/30 03:43:14;;;;;;;7.88;3.60;;;;;;;12.33;90.22;101434.59;5021825;28;20071;-58
2023/06/30 03:45:40;;;;;;;8.85;4.10;;;;;;;12.37;90.92;101428.78;5018745;28;20037;-59
2023/06/30 03:48:05;;;;;;;9.07;4.25;;;;;;;12.34;91.64;101426.44;5022954;28;20104;-58
2023/06/30 03:50:30;;;;;;;8.55;4.88;;;;;;;12.39;92.02;101418.78;5019682;28;20108;-59
2023/06/30 03:52:56;;;;;;;10.88;4.55;;;;;;;12.43;92.43;101418.44;5021731;28;20021;-58
2023/06/30 03:55:21;;;;;;;10.32;4.78;;;;;;;12.39;92.21;101420.63;5007613;28;20065;-59
2023/06/30 03:57:46;;;;;;;16.88;4.72;;;;;;;12.38;92.54;101416.28;5025241;28;20061;-59
2023/06/30 04:00:12;;;;;;;12.20;4.10;;;;;;;12.36;92.28;101416.47;5020040;28;20117;-58
2023/06/30 04:02:39;;;;;;;7.07;3.75;;;;;;;12.35;92.17;101424.63;5025844;28;20048;-59
2023/06/30 04:05:04;;;;;;;9.25;3.90;;;;;;;12.31;92.14;101426.78;5018670;28;20040;-58
2023/06/30 04:07:29;;;;;;;8.15;4.20;;;;;;;12.30;92.35;101429.63;5027124;28;20026;-59
2023/06/30 04:09:55;;;;;;;11.07;4.10;;;;;;;12.26;92.37;101426.47;5021097;28;20037;-58
2023/06/30 04:12:20;;;;;;;10.50;4.32;;;;;;;12.28;92.78;101427.13;5018950;28;20033;-59
2023/06/30 04:14:46;;;;;;;10.20;4.93;;;;;;;12.28;92.91;101426.28;5023826;28;20479;-59
2023/06/30 04:17:11;;;;;;;12.45;4.50;;;;;;;12.26;93.22;101430.97;5019434;28;20038;-59
2023/06/30 04:19:36;;;;;;;7.63;4.38;;;;;;;12.21;92.83;101427.97;5024414;28;20095;-58
2023/06/30 04:22:02;;;;;;;8.80;4.00;;;;;;;12.12;92.70;101428.94;5015365;28;20639;-59
2023/06/30 04:24:27;;;;;;;9.55;4.20;;;;;;;12.06;92.82;101433.94;5027779;28;20030;-59
2023/06/30 04:26:52;;;;;;;8.40;4.20;;;;;;;12.04;92.65;101438.59;5026337;28;20026;-59
2023/06/30 04:29:17;;;;;;;11.05;5.10;;;;;;;12.02;92.60;101427.28;5020873;28;20091;-59
2023/06/30 04:31:43;;;;;;;12.43;4.55;;;;;;;11.99;93.33;101432.13;5030038;28;20542;-60
2023/06/30 04:34:08;;;;;;;8.95;4.82;;;;;;;11.98;93.70;101435.78;5029156;28;20033;-60
2023/06/30 04:36:34;;;;;;;11.18;4.70;;;;;;;11.99;93.53;101426.78;5030820;28;20112;-61
2023/06/30 04:38:59;;;;;;;12.15;5.20;;;;;;;11.98;93.28;101427.78;5021941;28;20406;-61
2023/06/30 04:41:25;;;;;;;11.40;5.22;;;;;;;11.99;93.63;101424.97;5017204;28;20080;-60
2023/06/30 04:43:50;;;;;;;14.10;5.38;;;;;;;12.00;93.62;101423.13;5017908;28;20118;-61
2023/06/30 04:46:16;;;;;;;11.00;5.10;;;;;;;12.03;93.99;101428.94;5023957;28;20101;-60
2023/06/30 04:48:41;;;;;;;11.57;5.28;;;;;;;12.07;94.16;101430.28;5018350;28;20136;-60
2023/06/30 04:51:06;;;;;;;10.82;5.20;;;;;;;12.10;94.15;101424.63;5026955;28;20057;-60
2023/06/30 04:53:32;;;;;;;10.48;5.35;;;;;;;12.13;94.32;101426.13;5030422;28;20029;-61
2023/06/30 04:55:57;;;;;;;10.02;5.50;;;;;;;12.17;94.63;101419.47;5014097;28;20458;-61
2023/06/30 04:58:22;;;;;;;10.40;5.57;;;;;;;12.21;94.46;101423.47;5022527;28;20025;-61
2023/06/30 05:00:49;;;;;;;12.90;5.85;;;;;;;12.27;94.80;101429.97;5018267;28;20041;-61
2023/06/30 05:03:14;;;;;;;16.08;6.45;;;;;;;12.36;95.02;101426.28;5027573;28;20029;-60
2023/06/30 05:05:40;;;;;;;13.75;5.97;;;;;;;12.41;95.34;101424.78;5017716;28;20029;-61
2023/06/30 05:08:05;;;;;;;15.35;6.07;;;;;;;12.48;95.45;101427.63;5023472;28;20033;-61
2023/06/30 05:10:30;;;;;;;11.07;5.97;;;;;;;12.58;95.46;101427.44;5017864;28;20120;-61
2023/06/30 05:12:56;;;;;;;15.95;6.57;;;;;;;12.64;95.94;101432.91;5023840;28;20029;-61
2023/06/30 05:15:21;;;;;;;13.55;6.40;;;;;;;12.75;95.84;101433.56;5026945;28;20164;-61
2023/06/30 05:17:46;;;;;;;15.77;6.50;;;;;;;12.82;95.98;101423.88;5012397;28;20055;-60
2023/06/30 05:20:12;;;;;;;15.23;6.13;;;;;;;12.87;95.93;101416.19;5022393;28;20427;-61
2023/06/30 05:22:37;;;;;;;11.95;5.80;;;;;;;12.97;95.27;101420.31;5022727;28;20104;-61
2023/06/30 05:25:02;;;;;;;11.50;6.38;;;;;;;13.05;95.08;101423.97;5012774;28;20098;-61
2023/06/30 05:27:28;;;;;;;12.55;6.38;;;;;;;13.13;94.86;101429.28;5024694;28;20155;-61
2023/06/30 05:29:53;;;;;;;13.60;5.97;;;;;;;13.17;94.88;101428.78;5020340;28;20025;-61
2023/06/30 05:32:18;;;;;;;9.93;6.03;;;;;;;13.24;94.73;101434.25;5016355;28;20029;-61
2023/06/30 05:34:43;;;;;;;13.07;5.90;;;;;;;13.30;94.66;101423.75;5014782;28;20033;-60
2023/06/30 05:37:09;;;;;;;12.38;5.90;;;;;;;13.39;94.70;101429.88;5027663;28;20033;-61
2023/06/30 05:39:34;;;;;;;9.45;5.90;;;;;;;13.47;94.71;101431.66;5011651;28;20626;-61
2023/06/30 05:42:01;;;;;;;13.50;5.45;;;;;;;13.53;94.45;101437.09;5018901;28;20036;-61
2023/06/30 05:44:26;;;;;;;12.55;5.50;;;;;;;13.62;94.05;101430.75;5021262;28;20545;-61
2023/06/30 05:46:51;;;;;;;16.02;5.70;;;;;;;13.70;94.08;101434.34;5018499;28;20164;-61
2023/06/30 05:49:16;;;;;;;13.25;5.75;;;;;;;13.77;93.70;101432.63;5020600;28;20403;-62
2023/06/30 05:51:42;;;;;;;9.23;5.20;;;;;;;13.86;93.66;101431.56;5022407;28;20140;-60
2023/06/30 05:54:09;;;;;;;14.00;5.88;;;;;;;13.97;92.86;101441.03;5021751;28;20415;-61
2023/06/30 05:56:34;;;;;;;13.07;4.95;;;;;;;14.03;92.47;101440.31;5019592;28;20377;-61
2023/06/30 05:58:59;;;;;;;11.02;4.90;;;;;;;14.11;91.79;101442.91;5020926;28;20483;-60
2023/06/30 06:01:24;;;;;;;13.38;4.90;;;;;;;14.19;91.33;101437.53;5022238;28;20122;-60
2023/06/30 06:03:50;;;;;;;9.75;4.82;;;;;;;14.27;91.19;101437.44;5017687;28;20175;-60
2023/06/30 06:06:15;;;;;;;10.10;4.70;;;;;;;14.35;90.74;101441.88;5027553;28;20028;-61
2023/06/30 06:08:43;;;;;;;11.23;4.43;;;;;;;14.44;90.00;101438.97;5017916;28;20041;-60
2023/06/30 06:11:09;;;;;;;10.07;4.47;;;;;;;14.45;89.66;101427.28;5013003;28;20021;-61
2023/06/30 06:13:36;;;;;;;9.23;4.32;;;;;;;14.60;89.00;101437.16;5017104;28;20510;-61
2023/06/30 06:16:03;;;;;;;9.52;4.70;;;;;;;14.70;88.64;101440.41;5013484;28;20033;-61
2023/06/30 06:18:28;;;;;;;8.30;3.92;;;;;;;14.77;88.21;101433.34;5019232;28;20030;-61
2023/06/30 06:20:55;;;;;;;11.18;4.15;;;;;;;14.86;87.64;101437.56;5012682;28;20057;-61
2023/06/30 06:23:20;;;;;;;9.20;3.88;;;;;;;14.94;86.81;101437.47;5019500;28;20034;-61
2023/06/30 06:25:46;;;;;;;9.27;4.50;;;;;;;15.01;86.49;101435.72;5011241;28;20087;-61
2023/06/30 06:28:11;;;;;;;9.32;3.67;;;;;;;15.07;86.21;101440.34;5016005;28;20483;-61
2023/06/30 06:30:36;;;;;;;6.97;3.33;;;;;;;15.13;85.08;101438.78;5013321;28;20021;-61
2023/06/30 06:33:02;;;;;;;8.15;3.28;;;;;;;15.19;84.09;101441.53;5008788;28;20475;-60
2023/06/30 06:35:27;;;;;;;9.50;3.45;;;;;;;15.27;83.71;101437.91;5013446;28;20041;-61
2023/06/30 06:37:52;;;;;;;9.60;3.10;;;;;;;15.37;83.25;101443.00;5021434;28;20528;-61
2023/06/30 06:40:17;;;;;;;6.15;3.03;;;;;;;15.42;82.59;101443.25;5016328;28;20648;-61
2023/06/30 06:42:43;;;;;;;6.22;3.30;;;;;;;15.49;82.14;101450.34;5020147;28;20029;-61
2023/06/30 06:45:08;;;;;;;5.63;3.00;;;;;;;15.58;81.44;101443.03;5019302;28;20017;-61
2023/06/30 06:48:11;;;;;;;10.57;3.20;;;;;;;15.68;80.83;101454.31;5025802;28;20075;-60
2023/06/30 06:50:36;;;;;;;7.30;2.72;;;;;;;15.74;80.11;101445.50;5020699;28;20034;-60
2023/06/30 06:53:01;;;;;;;8.00;2.88;;;;;;;15.80;79.14;101443.91;5025130;28;20032;-61
2023/06/30 06:55:26;;;;;;;5.20;2.67;;;;;;;15.86;78.67;101439.63;5009171;28;20069;-60
2023/06/30 06:57:53;;;;;;;6.28;2.95;;;;;;;15.94;77.60;101442.22;5023408;28;20380;-61
2023/06/30 07:00:19;;;;;;;7.13;2.50;;;;;;;16.00;77.17;101446.81;5019897;28;20549;-61
2023/06/30 07:02:44;;;;;;;7.22;2.47;;;;;;;16.04;76.23;101448.06;5026263;28;20034;-61
2023/06/30 07:05:10;;;;;;;4.55;2.67;;;;;;;16.09;75.64;101443.78;5014673;28;20026;-61
2023/06/30 07:07:36;;;;;;;8.38;3.15;;;;;;;16.15;75.51;101442.19;5008976;28;20029;-60
2023/06/30 07:10:01;;;;;;;6.70;2.80;;;;;;;16.24;75.23;101448.28;5021721;28;20550;-61
2023/06/30 07:12:26;;;;;;;6.15;2.85;;;;;;;16.28;74.15;101445.00;5018177;28;20025;-61
2023/06/30 07:14:52;;;;;;;6.72;2.67;;;;;;;16.34;73.81;101436.19;5022086;28;20036;-61
2023/06/30 07:17:17;;;;;;;5.03;2.33;;;;;;;16.41;73.13;101442.41;5016318;28;20026;-61
2023/06/30 07:19:42;;;;;;;10.43;2.53;;;;;;;16.46;71.92;101444.50;5013584;28;20513;-61
2023/06/30 07:22:07;;;;;;;8.27;2.70;;;;;;;16.51;71.80;101443.97;5019503;28;20029;-61
2023/06/30 07:24:33;;;;;;;12.70;2.80;;;;;;;16.59;72.07;101449.16;5020911;28;20057;-61
2023/06/30 07:26:58;;;;;;;8.82;2.85;;;;;;;16.68;71.98;101448.00;5021857;28;20024;-61
2023/06/30 07:29:24;;;;;;;6.25;2.38;;;;;;;16.73;70.95;101449.09;5021547;28;20057;-61
2023/06/30 07:31:49;;;;;;;7.22;2.40;;;;;;;16.84;70.38;101447.72;5025309;28;20034;-61
2023/06/30 07:34:18;;;;;;;6.38;2.00;;;;;;;16.88;69.20;101446.31;5023179;28;20109;-61
2023/06/30 07:36:44;;;;;;;4.20;1.92;;;;;;;16.97;68.38;101457.69;5011505;28;20698;-61
2023/06/30 07:39:09;;;;;;;5.47;1.90;;;;;;;17.01;67.88;101453.59;5023622;28;20036;-61
2023/06/30 07:41:34;;;;;;;5.10;1.92;;;;;;;17.11;67.02;101455.94;5021177;28;20108;-60
2023/06/30 07:44:01;;;;;;;4.13;1.77;;;;;;;17.19;66.70;101461.97;5022581;28;20021;-60
2023/06/30 07:46:26;;;;;;;5.45;1.90;;;;;;;17.32;66.31;101461.19;5015811;28;20478;-61
2023/06/30 07:48:51;;;;;;;6.30;1.90;;;;;;;17.33;65.13;101457.47;5024200;28;20040;-61
2023/06/30 07:51:17;;;;;;;4.80;1.88;;;;;;;17.37;65.30;101453.38;5028760;28;20079;-61
2023/06/30 07:53:42;;;;;;;5.20;1.80;;;;;;;17.44;65.18;101446.16;5025919;28;20049;-61
2023/06/30 07:56:07;;;;;;;4.43;1.80;;;;;;;17.51;64.46;101446.19;5015243;28;20049;-61
2023/06/30 07:58:32;;;;;;;4.30;1.60;;;;;;;17.58;63.83;101447.84;5020378;28;20022;-60
2023/06/30 08:00:58;;;;;;;4.40;1.80;;;;;;;17.72;64.18;101456.00;5020699;28;20021;-61
2023/06/30 08:03:23;;;;;;;6.35;1.85;;;;;;;17.77;63.12;101453.53;5021354;28;20033;-60
2023/06/30 08:05:48;;;;;;;5.07;1.73;;;;;;;17.79;62.46;101448.78;5023516;28;20022;-61
2023/06/30 08:08:13;;;;;;;4.78;1.63;;;;;;;17.82;61.51;101459.94;5015657;28;20560;-61
2023/06/30 08:10:40;;;;;;;8.52;1.92;;;;;;;17.86;61.70;101449.63;5025298;28;20033;-60
2023/06/30 08:13:05;;;;;;;6.88;1.90;;;;;;;17.94;61.97;101455.66;5022062;28;20036;-60
2023/06/30 08:15:30;;;;;;;6.80;1.85;;;;;;;18.07;61.19;101457.53;5024485;28;20247;-61
2023/06/30 08:17:56;;;;;;;5.03;1.77;;;;;;;18.15;60.55;101448.41;5012883;28;20503;-61
2023/06/30 08:20:21;;;;;;;6.45;2.30;;;;;;;18.34;60.89;101452.16;5021281;28;20045;-60
2023/06/30 08:22:46;;;;;;;6.75;2.03;;;;;;;18.42;60.37;101457.34;5015137;28;20104;-61
2023/06/30 08:25:11;;;;;;;5.43;1.85;;;;;;;18.47;59.52;101457.53;5018269;28;20024;-61
2023/06/30 08:27:37;;;;;;;6.47;2.00;;;;;;;18.53;58.94;101454.88;5030657;28;20104;-61
2023/06/30 08:30:02;;;;;;;3.95;1.70;;;;;;;18.65;58.79;101447.00;5014574;28;20095;-61
2023/06/30 08:32:27;;;;;;;4.53;1.70;;;;;;;18.75;57.83;101450.09;5013670;28;20030;-60
2023/06/30 08:34:53;;;;;;;3.75;2.25;;;;;;;18.84;57.89;101435.41;5022149;28;20057;-61
2023/06/30 08:37:18;;;;;;;5.95;1.83;;;;;;;18.91;57.71;101434.53;5016202;28;20017;-61
2023/06/30 08:39:43;;;;;;;5.80;2.00;;;;;;;19.04;58.03;101439.88;5017824;28;21905;-61
2023/06/30 08:42:10;;;;;;;5.25;2.13;;;;;;;19.10;57.02;101436.38;5017199;28;20033;-60
2023/06/30 08:44:36;;;;;;;6.47;2.10;;;;;;;19.18;57.14;101433.44;5025784;28;20092;-60
2023/06/30 08:47:02;;;;;;;5.20;1.80;;;;;;;19.19;56.56;101430.53;5019650;28;20056;-61
2023/06/30 08:49:29;;;;;;;5.28;1.98;;;;;;;19.28;55.91;101431.09;5022011;28;20110;-61
2023/06/30 08:51:56;;;;;;;4.57;2.00;;;;;;;19.41;56.41;101422.97;5025126;28;20489;-61
2023/06/30 08:54:23;;;;;;;4.93;2.40;;;;;;;19.52;56.51;101417.94;5020927;28;20030;-60
2023/06/30 08:56:48;;;;;;;6.80;2.20;;;;;;;19.41;55.22;101422.97;5026252;28;20034;-61
2023/06/30 08:59:13;;;;;;;7.50;2.13;;;;;;;19.37;55.91;101421.75;5015624;28;20029;-61
2023/06/30 09:01:39;;;;;;;4.95;2.40;;;;;;;19.38;55.19;101419.88;5014565;28;20461;-61
2023/06/30 09:04:05;;;;;;;4.32;2.05;;;;;;;19.39;55.30;101425.06;5021601;28;20040;-60
2023/06/30 09:06:35;;;;;;;4.70;2.28;;;;;;;19.39;55.09;101413.47;5023481;28;20025;-61
2023/06/30 09:09:09;;;;;;;3.72;1.92;;;;;;;19.48;54.85;101423.75;5024583;28;20025;-61
2023/06/30 09:11:36;;;;;;;4.47;1.90;;;;;;;19.49;54.56;101419.19;5020521;28;20087;-61
2023/06/30 09:14:03;;;;;;;4.38;2.00;;;;;;;19.52;54.12;101417.94;5025384;28;20056;-61
2023/06/30 09:16:30;;;;;;;4.22;1.98;;;;;;;19.52;54.39;101420.63;5019566;28;20029;-60
2023/06/30 09:18:56;;;;;;;4.78;2.08;;;;;;;19.52;55.16;101417.94;5023960;28;20553;-60
2023/06/30 09:21:21;;;;;;;7.57;2.53;;;;;;;19.52;54.77;101415.25;5017239;28;20033;-61
2023/06/30 09:23:46;;;;;;;4.78;2.50;;;;;;;19.67;55.56;101418.53;5021695;28;20061;-61
2023/06/30 09:26:16;;;;;;;6.53;2.10;;;;;;;19.77;55.44;101410.78;5023756;28;22062;-61
2023/06/30 09:28:43;;;;;;;5.97;2.08;;;;;;;19.71;54.29;101414.34;5017336;28;20037;-60
2023/06/30 09:31:08;;;;;;;5.65;2.30;;;;;;;19.76;54.23;101406.44;5020167;28;20025;-61
2023/06/30 09:33:35;;;;;;;5.70;2.05;;;;;;;19.89;53.00;101411.72;5015843;28;20025;-61
2023/06/30 09:36:02;;;;;;;6.03;1.80;;;;;;;19.98;52.77;101413.13;5013481;28;20112;-60
2023/06/30 09:38:29;;;;;;;4.22;1.65;;;;;;;19.96;51.55;101409.00;5024183;28;20560;-61
2023/06/30 09:40:55;;;;;;;3.92;1.60;;;;;;;19.98;50.96;101409.63;5017967;28;20014;-60
2023/06/30 09:43:22;;;;;;;3.22;1.50;;;;;;;19.99;50.16;101409.41;5014835;28;20124;-61
2023/06/30 09:45:54;;;;;;;5.20;1.98;;;;;;;20.11;49.85;101409.50;5019464;28;20021;-61
2023/06/30 09:48:19;;;;;;;5.70;1.92;;;;;;;20.03;49.96;101399.00;5017972;28;20079;-61
2023/06/30 09:50:45;;;;;;;6.45;1.80;;;;;;;19.90;50.40;101402.59;5012927;28;21184;-61
2023/06/30 09:53:10;;;;;;;4.68;1.65;;;;;;;19.86;49.97;101404.09;5022278;28;20036;-61
2023/06/30 09:55:49;;;;;;;5.55;2.00;;;;;;;19.88;51.58;101409.25;5020775;28;20033;-60
2023/06/30 09:58:17;;;;;;;6.63;2.10;;;;;;;19.85;51.26;101399.72;5009792;28;20033;-61
2023/06/30 10:00:42;;;;;;;5.53;2.03;;;;;;;19.85;50.59;101413.22;5013881;28;20682;-61
2023/06/30 10:03:10;;;;;;;8.07;1.80;;;;;;;19.93;51.29;101402.16;5021713;28;20061;-60
2023/06/30 10:05:37;;;;;;;4.95;1.90;;;;;;;20.10;51.14;101402.47;5017872;28;20033;-61
2023/06/30 10:08:03;;;;;;;5.60;1.98;;;;;;;20.37;52.13;101398.50;5023260;28;20030;-61
2023/06/30 10:10:29;;;;;;;3.17;1.83;;;;;;;20.48;50.97;101396.97;5015053;28;20477;-61
2023/06/30 10:12:56;;;;;;;5.50;1.90;;;;;;;20.50;50.29;101392.16;5015429;28;20029;-61
2023/06/30 10:15:22;;;;;;;4.82;1.90;;;;;;;20.38;50.11;101385.81;5013570;28;20476;-62
2023/06/30 10:17:48;;;;;;;5.30;2.10;;;;;;;20.37;50.05;101385.00;5010668;28;20053;-61
2023/06/30 10:20:13;;;;;;;5.55;2.10;;;;;;;20.22;49.87;101389.06;5016337;28;20511;-61
2023/06/30 10:22:39;;;;;;;6.32;1.80;;;;;;;20.25;50.19;101385.97;5022404;28;20022;-61
2023/06/30 10:25:10;;;;;;;5.53;1.80;;;;;;;20.40;50.16;101384.59;5018267;28;20056;-61
2023/06/30 10:27:36;;;;;;;4.28;1.80;;;;;;;20.54;50.27;101388.00;5018309;28;20113;-61
2023/06/30 10:30:02;;;;;;;6.45;2.30;;;;;;;20.48;49.59;101379.94;5008962;28;20450;-61
2023/06/30 10:32:27;;;;;;;10.27;2.53;;;;;;;20.53;50.31;101380.94;5021279;28;20025;-61
2023/06/30 10:34:53;;;;;;;5.38;2.00;;;;;;;20.66;49.72;101380.81;5021557;28;20035;-61
2023/06/30 10:37:20;;;;;;;6.28;1.98;;;;;;;20.93;49.96;101375.09;5012589;28;20025;-62
2023/06/30 10:39:46;;;;;;;9.50;2.20;;;;;;;21.18;50.14;101367.72;5023608;28;20123;-61
2023/06/30 10:42:12;;;;;;;5.15;1.80;;;;;;;21.17;49.20;101357.97;5019158;28;20029;-61
2023/06/30 10:44:45;;;;;;;5.18;2.33;;;;;;;21.25;48.79;101364.97;5020068;28;20029;-61
2023/06/30 10:47:11;;;;;;;4.30;1.75;;;;;;;21.21;47.67;101361.88;5009584;28;20790;-61
2023/06/30 10:49:41;;;;;;;4.53;1.85;;;;;;;21.36;48.73;101366.88;5021526;28;20033;-62
2023/06/30 10:52:11;;;;;;;6.03;1.85;;;;;;;21.04;47.50;101356.25;5016090;28;20755;-61
2023/06/30 10:54:46;;;;;;;6.32;2.08;;;;;;;20.85;47.39;101359.22;5017585;28;20052;-61
2023/06/30 10:57:17;;;;;;;4.78;1.80;;;;;;;20.74;47.97;101360.78;5012535;28;20037;-61
2023/06/30 10:59:44;;;;;;;3.30;1.92;;;;;;;20.71;48.60;101359.34;5023829;28;20025;-62
2023/06/30 11:02:13;;;;;;;5.43;2.00;;;;;;;20.68;48.46;101350.88;5011706;28;20030;-61
2023/06/30 11:04:39;;;;;;;;;;;;;;;20.67;48.73;101352.75;5013652;28;20492;-61
2023/06/30 11:07:06;;;;;;;4.43;2.15;;;;;;;20.60;48.79;101349.31;5021074;28;20402;-61
2023/06/30 11:09:55;;;;;;;5.13;1.92;;;;;;;20.85;49.76;101338.44;5018718;28;20037;-60
2023/06/30 11:12:24;;;;;;;4.75;2.25;;;;;;;21.13;48.05;101343.28;5016593;28;20030;-62
2023/06/30 11:14:58;;;;;;;6.80;2.30;;;;;;;21.43;48.36;101342.50;5013858;28;20483;-62
2023/06/30 11:17:25;;;;;;;4.35;2.42;;;;;;;21.40;47.58;101342.94;5015293;28;20033;-61